ASL99M LGKR-LYBE
Flight info
| Callsign | ASL99M |
|---|---|
| Flight time | N/A |
| Altitude | 18000 |
| Route | NIKRO M127 OVVER/N0460F320 DCT TRN/N0459F330 DCT ALELU DCT ELGEB |
| Aircraft | E195/M-SDE3GILORVW/S |
Departure
| Time | 2026-05-01 14:30 |
|---|---|
| Airport | Corfu Ioannis Kapodistrias International Airport (LGKR) |
Arrival
| Time | N/A |
|---|---|
| Airport | Belgrade Nikola Tesla Airport (LYBE) |
| Time | Latitude | Longitude | Altitude | Speed | Heading |
|---|---|---|---|---|---|
| 2026-05-01 14:06 | 39.60593 | 19.91388 | 17 ft | 0 kts | 78° |
| 2026-05-01 14:22 | 39.60585 | 19.91339 | 18 ft | 4 kts | 83° |
| 2026-05-01 14:22 | 39.60585 | 19.91305 | 19 ft | 4 kts | 110° |
| 2026-05-01 14:22 | 39.60595 | 19.91285 | 18 ft | 4 kts | 137° |
| 2026-05-01 14:22 | 39.60609 | 19.91258 | 21 ft | 4 kts | 93° |
| 2026-05-01 14:23 | 39.60604 | 19.91228 | 20 ft | 4 kts | 47° |
| 2026-05-01 14:23 | 39.60612 | 19.91231 | 19 ft | 4 kts | 22° |
| 2026-05-01 14:23 | 39.60638 | 19.91231 | 18 ft | 4 kts | 355° |
| 2026-05-01 14:23 | 39.60665 | 19.91226 | 17 ft | 4 kts | 349° |
| 2026-05-01 14:24 | 39.60669 | 19.91224 | 17 ft | 0 kts | 348° |
| 2026-05-01 14:25 | 39.60672 | 19.91224 | 17 ft | 2 kts | 348° |
| 2026-05-01 14:26 | 39.60711 | 19.91214 | 19 ft | 9 kts | 348° |
| 2026-05-01 14:26 | 39.60853 | 19.91177 | 17 ft | 10 kts | 348° |
| 2026-05-01 14:26 | 39.60926 | 19.91158 | 18 ft | 11 kts | 348° |
| 2026-05-01 14:27 | 39.61008 | 19.91136 | 17 ft | 13 kts | 348° |
| 2026-05-01 14:27 | 39.61097 | 19.91113 | 19 ft | 14 kts | 348° |
| 2026-05-01 14:27 | 39.61199 | 19.91076 | 18 ft | 17 kts | 324° |
| 2026-05-01 14:28 | 39.61221 | 19.90950 | 21 ft | 3 kts | 176° |
| 2026-05-01 14:28 | 39.61208 | 19.90952 | 20 ft | 0 kts | 167° |
| 2026-05-01 14:30 | 39.60663 | 19.91089 | 17 ft | 101 kts | 168° |
| 2026-05-01 14:30 | 39.59789 | 19.91321 | 25 ft | 152 kts | 167° |
| 2026-05-01 14:30 | 39.58769 | 19.91628 | 643 ft | 143 kts | 170° |
| 2026-05-01 14:31 | 39.56633 | 19.92750 | 1452 ft | 196 kts | 143° |
| 2026-05-01 14:31 | 39.55620 | 19.94057 | 2025 ft | 223 kts | 128° |
| 2026-05-01 14:31 | 39.54701 | 19.95741 | 2987 ft | 233 kts | 122° |
| 2026-05-01 14:31 | 39.53798 | 19.97532 | 4075 ft | 240 kts | 121° |
| 2026-05-01 14:32 | 39.53074 | 19.99473 | 5284 ft | 242 kts | 101° |
| 2026-05-01 14:32 | 39.53074 | 20.01674 | 6295 ft | 250 kts | 74° |
| 2026-05-01 14:32 | 39.53854 | 20.03672 | 7380 ft | 252 kts | 49° |
| 2026-05-01 14:32 | 39.55247 | 20.05108 | 8228 ft | 264 kts | 30° |
| 2026-05-01 14:33 | 39.56950 | 20.06148 | 8482 ft | 276 kts | 22° |
| 2026-05-01 14:33 | 39.58733 | 20.07107 | 8988 ft | 278 kts | 22° |
| 2026-05-01 14:33 | 39.60529 | 20.08087 | 9508 ft | 281 kts | 22° |
| 2026-05-01 14:33 | 39.62336 | 20.09100 | 10051 ft | 285 kts | 23° |
| 2026-05-01 14:34 | 39.64185 | 20.10186 | 10266 ft | 299 kts | 19° |
| 2026-05-01 14:34 | 39.66262 | 20.10753 | 10531 ft | 307 kts | 5° |
| 2026-05-01 14:34 | 39.68399 | 20.10966 | 11022 ft | 310 kts | 2° |
| 2026-05-01 14:34 | 39.70564 | 20.11085 | 11528 ft | 313 kts | 1° |
| 2026-05-01 14:35 | 39.72753 | 20.11165 | 12038 ft | 315 kts | 358° |
| 2026-05-01 14:35 | 39.74945 | 20.10971 | 12538 ft | 317 kts | 354° |
| 2026-05-01 14:35 | 39.77153 | 20.10745 | 13043 ft | 319 kts | 353° |
| 2026-05-01 14:35 | 39.79340 | 20.10476 | 13549 ft | 320 kts | 353° |
| 2026-05-01 14:36 | 39.82085 | 20.10138 | 14142 ft | 323 kts | 353° |
| 2026-05-01 14:36 | 39.84300 | 20.09863 | 14596 ft | 325 kts | 353° |
| 2026-05-01 14:36 | 39.86555 | 20.09585 | 15052 ft | 327 kts | 352° |
| 2026-05-01 14:36 | 39.88828 | 20.09305 | 15511 ft | 329 kts | 352° |
| 2026-05-01 14:37 | 39.91116 | 20.09024 | 15965 ft | 330 kts | 352° |
| 2026-05-01 14:37 | 39.93413 | 20.08744 | 16424 ft | 332 kts | 352° |
| 2026-05-01 14:37 | 39.95723 | 20.08462 | 16891 ft | 334 kts | 352° |
| 2026-05-01 14:37 | 39.98039 | 20.08179 | 17348 ft | 337 kts | 352° |
| 2026-05-01 14:38 | 40.00378 | 20.07891 | 17844 ft | 338 kts | 352° |
| 2026-05-01 14:38 | 40.02733 | 20.07604 | 18330 ft | 340 kts | 352° |
| 2026-05-01 14:38 | 40.05097 | 20.07318 | 18757 ft | 342 kts | 352° |
| 2026-05-01 14:38 | 40.07445 | 20.07027 | 19163 ft | 344 kts | 352° |
| 2026-05-01 14:39 | 40.09838 | 20.06736 | 19578 ft | 346 kts | 352° |
| 2026-05-01 14:39 | 40.12242 | 20.06443 | 19983 ft | 348 kts | 352° |
| 2026-05-01 14:39 | 40.14664 | 20.06150 | 20376 ft | 351 kts | 352° |
| 2026-05-01 14:39 | 40.17101 | 20.05847 | 20772 ft | 353 kts | 352° |
| 2026-05-01 14:40 | 40.19558 | 20.05547 | 21146 ft | 355 kts | 352° |
| 2026-05-01 14:40 | 40.22027 | 20.05238 | 21460 ft | 357 kts | 352° |
| 2026-05-01 14:40 | 40.24504 | 20.04939 | 21838 ft | 358 kts | 352° |
| 2026-05-01 14:40 | 40.26995 | 20.04633 | 22209 ft | 360 kts | 352° |
| 2026-05-01 14:41 | 40.29498 | 20.04325 | 22588 ft | 362 kts | 352° |
| 2026-05-01 14:41 | 40.32021 | 20.04013 | 22953 ft | 365 kts | 352° |
| 2026-05-01 14:41 | 40.34556 | 20.03703 | 23325 ft | 367 kts | 352° |
| 2026-05-01 14:41 | 40.37072 | 20.03390 | 23674 ft | 369 kts | 352° |
| 2026-05-01 14:42 | 40.39640 | 20.03075 | 23984 ft | 371 kts | 352° |
| 2026-05-01 14:42 | 40.42218 | 20.02757 | 24280 ft | 373 kts | 352° |
| 2026-05-01 14:42 | 40.44807 | 20.02431 | 24563 ft | 375 kts | 352° |
| 2026-05-01 14:42 | 40.47411 | 20.02115 | 24818 ft | 377 kts | 352° |
| 2026-05-01 14:43 | 40.50025 | 20.01788 | 25108 ft | 378 kts | 352° |
| 2026-05-01 14:43 | 40.52648 | 20.01373 | 25365 ft | 380 kts | 350° |
| 2026-05-01 14:43 | 40.55259 | 20.00845 | 25620 ft | 380 kts | 346° |
| 2026-05-01 14:43 | 40.57837 | 20.00031 | 25902 ft | 381 kts | 344° |
| 2026-05-01 14:44 | 40.60419 | 19.99210 | 26167 ft | 383 kts | 343° |
| 2026-05-01 14:44 | 40.65718 | 19.98101 | 26703 ft | 389 kts | 353° |
| 2026-05-01 14:44 | 40.67510 | 19.97944 | 26864 ft | 390 kts | 354° |
| 2026-05-01 14:45 | 40.70228 | 19.97759 | 27104 ft | 393 kts | 356° |
| 2026-05-01 14:45 | 40.76629 | 19.98025 | 27656 ft | 398 kts | 360° |
| 2026-05-01 14:45 | 40.79408 | 19.98195 | 27907 ft | 400 kts | 360° |
| 2026-05-01 14:46 | 40.81255 | 19.98305 | 28072 ft | 401 kts | 360° |
| 2026-05-01 14:46 | 40.86856 | 19.98640 | 28615 ft | 403 kts | 0° |
| 2026-05-01 14:46 | 40.89664 | 19.98814 | 28859 ft | 405 kts | 0° |
| 2026-05-01 14:47 | 40.92484 | 19.98984 | 29107 ft | 407 kts | 0° |
| 2026-05-01 14:47 | 40.95317 | 19.99152 | 29316 ft | 409 kts | 360° |
| 2026-05-01 14:47 | 40.98169 | 19.99324 | 29550 ft | 410 kts | 0° |
| 2026-05-01 14:48 | 41.03909 | 19.99668 | 29828 ft | 417 kts | 360° |
| 2026-05-01 14:48 | 41.12769 | 20.00201 | 30214 ft | 427 kts | 360° |
| 2026-05-01 14:49 | 41.18715 | 20.00561 | 30642 ft | 428 kts | 359° |
| 2026-05-01 14:49 | 41.24664 | 20.00919 | 31057 ft | 428 kts | 360° |
| 2026-05-01 14:50 | 41.29594 | 20.01218 | 31458 ft | 426 kts | 360° |
| 2026-05-01 14:50 | 41.36483 | 20.01635 | 31887 ft | 423 kts | 359° |
| 2026-05-01 14:51 | 41.39349 | 20.01812 | 31965 ft | 402 kts | 359° |
| 2026-05-01 14:51 | 41.44923 | 20.02146 | 32046 ft | 404 kts | 359° |